Time;durP1;ratioP1;P1;durP2;ratioP2;P2;SDS_P1;SDS_P2;PMS_P1;PMS_P2;Temp;Humidity;BMP_temperature;BMP_pressure;BME280_temperature;BME280_humidity;BME280_pressure;Samples;Min_cycle;Max_cycle;Signal;HPM_P1;HPM_P2
2022/01/23 00:00:33;;;;;;;;;;;5.40;99.90;;;;;;5062744;28;20345;-61
2022/01/23 00:03:01;;;;;;;0.00;0.00;;;5.20;99.90;;;;;;5042247;28;19921;-60
2022/01/23 00:05:33;;;;;;;0.00;0.00;;;6.30;99.90;;;;;;5061852;28;20048;-61
2022/01/23 00:07:59;;;;;;;0.00;0.00;;;5.20;99.90;;;;;;5061475;28;20064;-61
2022/01/23 00:10:25;;;;;;;0.00;0.00;;;5.20;99.90;;;;;;5061329;28;20048;-61
2022/01/23 00:12:55;;;;;;;0.00;0.00;;;5.20;99.90;;;;;;5061995;28;20771;-61
2022/01/23 00:18:06;;;;;;;0.00;0.00;;;5.20;99.90;;;;;;5060799;28;20049;-61
2022/01/23 00:20:32;;;;;;;0.00;0.00;;;5.20;99.90;;;;;;5061576;28;20060;-62
2022/01/23 00:23:01;;;;;;;0.00;0.00;;;5.20;99.90;;;;;;5061425;28;20582;-61
2022/01/23 00:30:58;;;;;;;0.00;0.00;;;5.20;99.90;;;;;;5063503;28;20055;-61
2022/01/23 00:33:24;;;;;;;0.00;0.00;;;5.20;99.90;;;;;;5060864;28;20655;-61
2022/01/23 00:35:50;;;;;;;0.00;0.00;;;5.10;99.90;;;;;;5061338;28;20041;-64
2022/01/23 00:38:17;;;;;;;0.00;0.00;;;5.20;99.90;;;;;;5060974;28;20044;-63
2022/01/23 00:40:44;;;;;;;0.00;0.00;;;5.20;99.90;;;;;;5060469;28;20132;-63
2022/01/23 00:51:27;;;;;;;0.00;0.00;;;5.10;99.90;;;;;;5061071;28;20049;-62
2022/01/23 00:53:54;;;;;;;0.00;0.00;;;5.20;99.90;;;;;;5060576;28;20052;-63
2022/01/23 00:56:20;;;;;;;0.00;0.00;;;5.10;99.90;;;;;;5061147;28;20036;-62
2022/01/23 00:58:46;;;;;;;0.00;0.00;;;5.20;99.90;;;;;;5060730;28;20051;-63
2022/01/23 01:01:13;;;;;;;0.00;0.00;;;5.20;99.90;;;;;;5059100;28;20040;-63
2022/01/23 01:03:38;;;;;;;0.00;0.00;;;5.20;99.90;;;;;;5061351;28;20049;-63
2022/01/23 01:06:04;;;;;;;0.00;0.00;;;5.20;99.90;;;;;;5026171;28;20139;-63
2022/01/23 01:08:30;;;;;;;0.00;0.00;;;5.20;99.90;;;;;;5060498;28;20091;-62
2022/01/23 01:32:56;;;;;;;0.00;0.00;;;5.20;99.90;;;;;;5059509;28;20052;-61
2022/01/23 01:37:48;;;;;;;0.00;0.00;;;5.20;99.90;;;;;;5059590;28;20131;-61
2022/01/23 01:40:14;;;;;;;0.00;0.00;;;5.20;99.90;;;;;;5059965;28;20060;-62
2022/01/23 01:42:40;;;;;;;0.00;0.00;;;5.20;99.90;;;;;;5060334;28;20063;-62
2022/01/23 01:45:06;;;;;;;0.00;0.00;;;5.20;99.90;;;;;;5042306;28;20055;-61
2022/01/23 01:47:32;;;;;;;0.08;0.03;;;5.10;99.90;;;;;;5059176;28;20056;-62
2022/01/23 01:49:58;;;;;;;0.00;0.00;;;5.20;99.90;;;;;;5059313;28;20040;-62
2022/01/23 01:52:24;;;;;;;0.00;0.00;;;5.10;99.90;;;;;;5060191;28;20048;-61
2022/01/23 01:54:59;;;;;;;0.00;0.00;;;5.10;99.90;;;;;;5059994;28;20049;-61
2022/01/23 01:57:29;;;;;;;0.00;0.00;;;5.10;99.90;;;;;;5059301;28;20041;-63
2022/01/23 02:00:13;;;;;;;0.20;0.20;;;5.20;99.90;;;;;;5059256;28;20045;-61
2022/01/23 02:10:50;;;;;;;0.00;0.00;;;5.20;99.90;;;;;;5093911;28;20075;-61
2022/01/23 02:13:21;;;;;;;0.00;0.00;;;5.20;99.90;;;;;;5090720;28;20083;-62
2022/01/23 02:51:34;;;;;;;0.00;0.00;;;5.10;99.90;;;;;;5079014;28;20044;-62
2022/01/23 02:56:48;;;;;;;0.00;0.00;;;5.10;99.90;;;;;;5078582;28;20128;-62
2022/01/23 02:59:30;;;;;;;0.00;0.00;;;5.10;99.90;;;;;;5095667;28;20109;-62
2022/01/23 03:04:25;;;;;;;0.00;0.00;;;5.30;99.90;;;;;;5079413;28;20512;-62
2022/01/23 03:07:09;;;;;;;0.00;0.00;;;5.10;99.90;;;;;;5079542;28;20035;-62
2022/01/23 03:25:36;;;;;;;0.00;0.00;;;5.10;99.90;;;;;;5079477;28;20048;-61
2022/01/23 03:30:52;;;;;;;0.00;0.00;;;5.00;99.90;;;;;;5083877;28;20393;-62
2022/01/23 03:33:18;;;;;;;0.10;0.10;;;5.00;99.90;;;;;;5078171;28;20065;-62
2022/01/23 03:35:45;;;;;;;0.00;0.00;;;5.00;99.90;;;;;;5079012;28;20044;-61
2022/01/23 03:38:10;;;;;;;0.00;0.00;;;5.00;99.90;;;;;;5079529;28;20047;-61
2022/01/23 03:40:36;;;;;;;0.00;0.00;;;5.00;99.90;;;;;;5079114;28;20439;-61
2022/01/23 03:43:10;;;;;;;0.00;0.00;;;5.00;99.90;;;;;;5078043;28;20052;-61
2022/01/23 03:50:37;;;;;;;0.00;0.00;;;5.00;99.90;;;;;;5081412;28;20051;-62
2022/01/23 03:53:03;;;;;;;0.00;0.00;;;5.00;99.90;;;;;;5080952;28;20052;-61
2022/01/23 03:55:28;;;;;;;0.00;0.00;;;5.00;99.90;;;;;;5082529;28;20032;-61
2022/01/23 03:57:54;;;;;;;0.00;0.00;;;5.00;99.90;;;;;;5082763;28;20095;-61
2022/01/23 04:00:20;;;;;;;0.00;0.00;;;5.00;99.90;;;;;;5081919;28;20136;-61
2022/01/23 04:02:45;;;;;;;0.00;0.00;;;5.00;99.90;;;;;;5080084;28;20404;-61
2022/01/23 04:05:11;;;;;;;0.00;0.00;;;5.00;99.90;;;;;;5082658;28;20048;-62
2022/01/23 04:07:37;;;;;;;0.00;0.00;;;5.00;99.90;;;;;;5082275;28;20052;-61
2022/01/23 04:10:04;;;;;;;0.00;0.00;;;5.00;99.90;;;;;;5081270;28;20114;-62
2022/01/23 04:15:10;;;;;;;0.00;0.00;;;5.00;99.90;;;;;;5081861;28;20048;-61
2022/01/23 04:20:27;;;;;;;0.00;0.00;;;5.00;99.90;;;;;;5081760;28;20052;-61
2022/01/23 04:34:38;;;;;;;0.00;0.00;;;5.00;99.90;;;;;;5080773;28;20286;-63
2022/01/23 04:48:37;;;;;;;0.00;0.00;;;4.90;99.90;;;;;;5081251;28;20048;-63
2022/01/23 05:01:22;;;;;;;0.00;0.00;;;4.90;99.90;;;;;;5059700;28;20060;-64
2022/01/23 05:06:29;;;;;;;0.00;0.00;;;4.90;99.90;;;;;;5080302;28;20093;-63
2022/01/23 05:08:54;;;;;;;0.00;0.00;;;6.40;99.90;;;;;;5080368;28;20064;-63
2022/01/23 05:11:20;;;;;;;0.00;0.00;;;5.70;99.90;;;;;;5081347;28;20115;-63
2022/01/23 05:13:47;;;;;;;0.00;0.00;;;4.90;99.90;;;;;;5095925;28;20086;-64
2022/01/23 05:16:13;;;;;;;0.00;0.00;;;4.80;99.90;;;;;;5080212;28;20050;-63
2022/01/23 05:18:39;;;;;;;0.00;0.00;;;4.90;99.90;;;;;;5081723;28;20563;-63
2022/01/23 05:22:08;;;;;;;0.00;0.00;;;4.90;99.90;;;;;;5078869;28;20074;-64
2022/01/23 05:23:53;;;;;;;0.00;0.00;;;4.80;99.90;;;;;;5073226;28;20044;-63
2022/01/23 05:26:18;;;;;;;0.00;0.00;;;5.90;99.90;;;;;;5079025;28;20303;-63
2022/01/23 05:28:44;;;;;;;0.00;0.00;;;4.80;99.90;;;;;;5090752;28;20093;-63
2022/01/23 05:31:10;;;;;;;0.00;0.00;;;4.80;99.90;;;;;;5079953;28;20044;-63
2022/01/23 05:33:36;;;;;;;0.00;0.00;;;4.80;99.90;;;;;;5080946;28;20082;-63
2022/01/23 05:36:01;;;;;;;0.00;0.00;;;4.90;99.90;;;;;;5080384;28;20036;-63
2022/01/23 05:38:27;;;;;;;0.00;0.00;;;4.70;99.90;;;;;;5079179;28;20051;-63
2022/01/23 05:40:57;;;;;;;0.00;0.00;;;4.70;99.90;;;;;;5080152;28;20114;-61
2022/01/23 05:43:26;;;;;;;0.00;0.00;;;5.90;99.90;;;;;;5080632;28;20089;-61
2022/01/23 05:45:52;;;;;;;0.00;0.00;;;4.70;99.90;;;;;;5080022;28;20116;-61
2022/01/23 05:48:19;;;;;;;0.00;0.00;;;4.70;99.90;;;;;;5079537;28;20048;-61
2022/01/23 05:50:47;;;;;;;0.00;0.00;;;4.80;99.90;;;;;;5078775;28;20069;-61
2022/01/23 05:53:12;;;;;;;0.00;0.00;;;4.70;99.90;;;;;;5080862;28;20075;-61
2022/01/23 05:55:38;;;;;;;0.00;0.00;;;4.70;99.90;;;;;;5080742;28;20087;-61
2022/01/23 05:58:04;;;;;;;0.00;0.00;;;4.70;99.90;;;;;;5079144;28;20089;-61
2022/01/23 06:00:30;;;;;;;0.00;0.00;;;4.70;99.90;;;;;;5080015;28;20490;-62
2022/01/23 06:02:55;;;;;;;0.00;0.00;;;4.70;99.90;;;;;;5079632;28;20040;-61
2022/01/23 06:05:21;;;;;;;0.00;0.00;;;4.70;99.90;;;;;;5080232;28;20536;-61
2022/01/23 06:07:50;;;;;;;0.00;0.00;;;4.70;99.90;;;;;;5077369;28;20513;-63
2022/01/23 06:10:25;;;;;;;0.00;0.00;;;4.70;99.90;;;;;;5080067;28;20113;-62
2022/01/23 06:12:51;;;;;;;0.00;0.00;;;4.70;99.90;;;;;;5079632;28;20086;-64
2022/01/23 06:15:17;;;;;;;0.00;0.00;;;4.70;99.90;;;;;;5078783;28;20089;-62
2022/01/23 06:17:44;;;;;;;0.00;0.00;;;4.70;99.90;;;;;;5079729;28;20243;-61
2022/01/23 06:20:13;;;;;;;0.00;0.00;;;4.70;99.90;;;;;;5080112;28;20124;-62
2022/01/23 06:22:41;;;;;;;0.00;0.00;;;4.70;99.90;;;;;;5079907;28;20127;-61
2022/01/23 06:25:09;;;;;;;0.00;0.00;;;4.60;99.90;;;;;;5080238;28;20044;-61
2022/01/23 06:27:35;;;;;;;0.00;0.00;;;4.60;99.90;;;;;;5095837;28;20120;-62
2022/01/23 06:30:01;;;;;;;0.00;0.00;;;4.90;99.90;;;;;;5089383;28;20138;-61
2022/01/23 06:32:27;;;;;;;0.00;0.00;;;4.60;99.90;;;;;;5098471;28;20046;-61
2022/01/23 06:34:53;;;;;;;0.00;0.00;;;4.60;99.90;;;;;;5099685;28;20485;-61
2022/01/23 06:37:19;;;;;;;0.00;0.00;;;4.50;99.90;;;;;;5100083;28;20043;-61
2022/01/23 06:39:44;;;;;;;0.00;0.00;;;4.50;99.90;;;;;;5099649;28;20555;-61
2022/01/23 06:42:10;;;;;;;0.00;0.00;;;4.40;99.90;;;;;;5098078;28;20101;-61
2022/01/23 06:44:37;;;;;;;0.00;0.00;;;4.40;99.90;;;;;;5100708;28;20127;-61
2022/01/23 06:47:04;;;;;;;0.00;0.00;;;4.30;99.90;;;;;;5098429;28;20094;-61
2022/01/23 06:49:30;;;;;;;0.00;0.00;;;4.30;99.90;;;;;;5098643;28;20079;-61
2022/01/23 06:51:56;;;;;;;0.00;0.00;;;4.20;99.90;;;;;;5098957;28;20649;-61
2022/01/23 06:54:22;;;;;;;0.00;0.00;;;4.20;99.90;;;;;;5099859;28;20617;-61
2022/01/23 06:56:47;;;;;;;0.00;0.00;;;4.20;99.90;;;;;;5099754;28;20103;-61
2022/01/23 06:59:13;;;;;;;0.70;0.70;;;4.10;99.90;;;;;;5099390;28;20096;-64
2022/01/23 07:01:39;;;;;;;0.00;0.00;;;4.50;99.90;;;;;;5098618;28;20071;-64
2022/01/23 07:04:05;;;;;;;0.00;0.00;;;4.10;99.90;;;;;;5099681;28;20086;-64
2022/01/23 07:06:31;;;;;;;0.00;0.00;;;4.10;99.90;;;;;;5098299;28;20055;-64
2022/01/23 07:08:57;;;;;;;0.00;0.00;;;3.30;99.90;;;;;;5097744;28;20417;-64
2022/01/23 07:11:23;;;;;;;0.00;0.00;;;4.00;99.90;;;;;;5099116;28;20039;-61
2022/01/23 07:13:48;;;;;;;0.00;0.00;;;4.00;99.90;;;;;;5099291;28;20501;-61
2022/01/23 07:16:14;;;;;;;0.00;0.00;;;4.00;99.90;;;;;;5098660;28;20201;-61
2022/01/23 07:18:39;;;;;;;0.00;0.00;;;4.00;99.90;;;;;;5099998;28;20054;-64
2022/01/23 07:21:05;;;;;;;0.00;0.00;;;5.20;99.90;;;;;;5098245;28;20043;-64
2022/01/23 07:23:31;;;;;;;0.00;0.00;;;4.00;99.90;;;;;;5099982;28;20058;-61
2022/01/23 07:25:58;;;;;;;0.00;0.00;;;4.00;99.90;;;;;;5102385;28;20039;-64
2022/01/23 07:28:34;;;;;;;0.00;0.00;;;4.80;99.90;;;;;;5097149;28;20044;-62
2022/01/23 07:31:04;;;;;;;0.00;0.00;;;4.00;99.90;;;;;;5084512;27;20664;-62
2022/01/23 07:33:30;;;;;;;0.00;0.00;;;4.90;99.90;;;;;;5081267;28;20491;-62
2022/01/23 07:35:56;;;;;;;0.00;0.00;;;4.10;99.90;;;;;;5082181;28;20052;-62
2022/01/23 07:38:21;;;;;;;0.00;0.00;;;4.10;99.90;;;;;;5082352;28;20623;-62
2022/01/23 07:40:50;;;;;;;0.00;0.00;;;4.20;99.90;;;;;;5082478;28;20043;-62
2022/01/23 07:43:16;;;;;;;0.00;0.00;;;4.20;99.90;;;;;;5082809;28;20051;-62
2022/01/23 07:45:42;;;;;;;0.00;0.00;;;4.20;99.90;;;;;;5081852;28;20448;-62
2022/01/23 07:48:09;;;;;;;0.00;0.00;;;4.20;99.90;;;;;;5082208;28;20666;-61
2022/01/23 07:50:35;;;;;;;0.00;0.00;;;4.20;99.90;;;;;;5083006;28;20048;-63
2022/01/23 07:53:01;;;;;;;0.00;0.00;;;4.20;99.90;;;;;;5082157;28;20097;-63
2022/01/23 07:55:27;;;;;;;0.00;0.00;;;4.20;99.90;;;;;;5098626;28;20486;-62
2022/01/23 07:57:53;;;;;;;0.00;0.00;;;4.30;99.90;;;;;;5081253;28;20067;-62
2022/01/23 08:00:20;;;;;;;0.00;0.00;;;4.30;99.90;;;;;;5082036;28;20059;-61
2022/01/23 08:02:46;;;;;;;0.00;0.00;;;4.40;99.90;;;;;;5082638;28;20036;-62
2022/01/23 08:05:12;;;;;;;0.00;0.00;;;4.40;99.90;;;;;;5081947;28;20051;-62
2022/01/23 08:07:38;;;;;;;0.00;0.00;;;4.70;99.90;;;;;;5082363;28;20055;-62
2022/01/23 08:10:07;;;;;;;0.00;0.00;;;4.40;99.90;;;;;;5080666;28;20082;-62
2022/01/23 08:12:33;;;;;;;0.00;0.00;;;4.50;99.90;;;;;;5082365;28;20406;-62
2022/01/23 08:14:59;;;;;;;0.00;0.00;;;4.40;99.90;;;;;;5080625;28;20074;-61
2022/01/23 08:17:26;;;;;;;0.00;0.00;;;4.50;99.90;;;;;;5082275;28;20037;-61
2022/01/23 08:19:53;;;;;;;0.00;0.00;;;4.70;99.90;;;;;;5082419;28;20123;-61
2022/01/23 08:22:20;;;;;;;0.00;0.00;;;4.60;99.90;;;;;;5081829;28;20051;-61
2022/01/23 08:24:46;;;;;;;0.00;0.00;;;4.60;99.90;;;;;;5081370;28;20040;-62
2022/01/23 08:27:12;;;;;;;0.00;0.00;;;4.70;99.90;;;;;;5083592;28;20588;-61
2022/01/23 08:29:37;;;;;;;0.00;0.00;;;4.70;99.90;;;;;;5091218;28;20629;-62
2022/01/23 08:32:03;;;;;;;0.00;0.00;;;4.70;99.90;;;;;;5081176;28;20047;-62
2022/01/23 08:34:29;;;;;;;0.00;0.00;;;4.70;99.90;;;;;;5079821;28;20499;-64
2022/01/23 08:36:55;;;;;;;0.00;0.00;;;4.70;99.90;;;;;;5081242;28;20040;-62
2022/01/23 08:39:24;;;;;;;0.00;0.00;;;5.10;99.90;;;;;;5081915;28;20072;-61
2022/01/23 08:41:50;;;;;;;0.00;0.00;;;4.90;99.90;;;;;;5081343;28;20398;-61
2022/01/23 08:44:21;;;;;;;0.00;0.00;;;4.90;99.90;;;;;;5081271;28;20044;-61
2022/01/23 08:46:48;;;;;;;0.00;0.00;;;4.50;99.90;;;;;;5080629;28;20093;-61
2022/01/23 08:49:15;;;;;;;0.00;0.00;;;5.10;99.90;;;;;;5081791;28;20052;-62
2022/01/23 08:51:41;;;;;;;0.00;0.00;;;5.00;99.90;;;;;;5080592;28;20067;-62
2022/01/23 08:54:07;;;;;;;0.00;0.00;;;5.00;99.90;;;;;;5081884;28;20071;-62
2022/01/23 08:56:33;;;;;;;0.00;0.00;;;5.10;99.90;;;;;;5081209;28;20071;-62
2022/01/23 08:58:58;;;;;;;0.00;0.00;;;5.10;99.90;;;;;;5081097;28;20051;-62
2022/01/23 09:01:25;;;;;;;0.00;0.00;;;5.10;99.90;;;;;;5080281;28;20048;-61
2022/01/23 09:03:50;;;;;;;0.00;0.00;;;5.20;99.90;;;;;;5080762;28;20552;-62
2022/01/23 09:06:16;;;;;;;0.00;0.00;;;5.20;99.90;;;;;;5081067;28;20048;-62
2022/01/23 09:08:42;;;;;;;0.00;0.00;;;5.20;99.90;;;;;;5080866;28;20055;-62
2022/01/23 09:11:13;;;;;;;0.00;0.00;;;6.50;99.90;;;;;;5080643;28;20406;-61
2022/01/23 09:16:06;;;;;;;0.00;0.00;;;5.30;99.90;;;;;;5078348;28;20051;-61
2022/01/23 09:18:33;;;;;;;0.00;0.00;;;5.30;99.90;;;;;;5081270;28;20130;-62
2022/01/23 09:20:59;;;;;;;0.00;0.00;;;5.40;99.90;;;;;;5078187;28;20044;-62
2022/01/23 09:23:25;;;;;;;0.00;0.00;;;5.40;99.90;;;;;;5080830;28;20143;-61
2022/01/23 09:25:51;;;;;;;0.00;0.00;;;5.40;99.90;;;;;;5080813;28;20051;-62
2022/01/23 09:28:19;;;;;;;0.00;0.00;;;5.50;99.90;;;;;;5085319;28;20042;-62
2022/01/23 09:30:49;;;;;;;0.00;0.00;;;5.50;99.90;;;;;;5084451;28;20134;-61
2022/01/23 09:33:15;;;;;;;0.00;0.00;;;5.60;99.90;;;;;;5080262;28;20082;-61
2022/01/23 09:35:41;;;;;;;0.00;0.00;;;5.60;99.90;;;;;;5080710;28;20052;-61
2022/01/23 09:38:06;;;;;;;0.00;0.00;;;6.20;99.90;;;;;;5079706;28;20035;-62
2022/01/23 09:40:32;;;;;;;0.00;0.00;;;6.10;99.90;;;;;;5080531;28;20731;-61
2022/01/23 09:43:18;;;;;;;0.00;0.00;;;5.70;99.90;;;;;;5080351;28;20127;-64
2022/01/23 09:45:50;;;;;;;0.00;0.00;;;5.70;99.90;;;;;;5079119;28;20044;-63
2022/01/23 09:48:21;;;;;;;0.00;0.00;;;5.80;99.90;;;;;;5079296;28;20040;-64
2022/01/23 09:50:48;;;;;;;0.00;0.00;;;5.80;99.90;;;;;;5080103;28;20059;-64
2022/01/23 09:53:15;;;;;;;0.00;0.00;;;5.90;99.90;;;;;;5079192;28;20048;-63
2022/01/23 09:55:45;;;;;;;0.00;0.00;;;5.90;99.90;;;;;;5080283;28;20077;-63
2022/01/23 09:58:14;;;;;;;0.00;0.00;;;6.00;99.90;;;;;;5079913;28;20043;-63
2022/01/23 10:00:41;;;;;;;0.00;0.00;;;6.50;99.90;;;;;;5079859;28;20097;-64
2022/01/23 10:03:07;;;;;;;0.00;0.00;;;6.00;99.90;;;;;;5079485;28;20372;-65
2022/01/23 10:05:33;;;;;;;0.00;0.00;;;6.30;99.90;;;;;;5079965;28;20040;-64
2022/01/23 10:08:00;;;;;;;0.10;0.10;;;6.10;99.90;;;;;;5077769;28;20119;-63
2022/01/23 10:10:31;;;;;;;0.00;0.00;;;6.20;99.90;;;;;;5082493;28;20359;-63
2022/01/23 10:12:59;;;;;;;0.00;0.00;;;6.70;99.90;;;;;;5079850;28;20244;-62
2022/01/23 10:15:30;;;;;;;0.00;0.00;;;6.20;99.90;;;;;;5079002;28;20717;-63
2022/01/23 10:17:57;;;;;;;0.15;0.13;;;6.30;99.90;;;;;;5079580;28;20075;-64
2022/01/23 10:20:24;;;;;;;0.00;0.00;;;6.30;99.90;;;;;;5079085;28;20051;-64
2022/01/23 10:22:51;;;;;;;0.00;0.00;;;6.30;99.90;;;;;;5079579;28;20075;-62
2022/01/23 10:25:20;;;;;;;0.00;0.00;;;6.40;99.90;;;;;;5079210;28;20071;-63
2022/01/23 10:28:07;;;;;;;0.00;0.00;;;6.40;99.90;;;;;;5081352;28;20562;-63
2022/01/23 10:30:34;;;;;;;0.00;0.00;;;6.50;99.90;;;;;;5093000;28;20043;-63
2022/01/23 10:33:07;;;;;;;0.00;0.00;;;6.60;99.90;;;;;;5099889;28;20374;-62
2022/01/23 10:35:35;;;;;;;0.00;0.00;;;7.00;99.90;;;;;;5099590;28;20067;-62
2022/01/23 10:38:07;;;;;;;0.00;0.00;;;6.70;99.90;;;;;;5099665;28;20581;-62
2022/01/23 10:40:36;;;;;;;0.00;0.00;;;6.70;99.90;;;;;;5099833;28;20051;-62
2022/01/23 10:48:48;;;;;;;0.00;0.00;;;6.70;99.90;;;;;;5075865;28;20572;-61
2022/01/23 10:51:18;;;;;;;0.00;0.00;;;6.60;99.90;;;;;;5099485;28;20071;-62
2022/01/23 10:54:09;;;;;;;0.00;0.00;;;6.70;99.90;;;;;;5098781;28;20414;-61
2022/01/23 10:57:03;;;;;;;0.00;0.00;;;6.70;99.90;;;;;;5099840;28;20161;-61
2022/01/23 10:59:47;;;;;;;0.00;0.00;;;6.80;99.90;;;;;;5100486;28;20112;-61
2022/01/23 11:02:21;;;;;;;0.00;0.00;;;6.80;99.90;;;;;;5102489;28;20051;-62
2022/01/23 11:04:59;;;;;;;0.00;0.00;;;6.80;99.90;;;;;;5103576;28;20036;-62
2022/01/23 11:07:27;;;;;;;0.00;0.00;;;6.90;99.90;;;;;;5103587;28;20091;-61
2022/01/23 11:09:58;;;;;;;0.00;0.00;;;6.90;99.90;;;;;;5103191;28;21168;-62
2022/01/23 11:12:43;;;;;;;0.00;0.00;;;7.20;99.90;;;;;;5103584;28;20044;-64
2022/01/23 11:18:00;;;;;;;0.00;0.00;;;7.20;99.90;;;;;;5102871;28;20119;-63
2022/01/23 11:20:37;;;;;;;0.08;0.08;;;6.90;99.90;;;;;;5103946;28;20054;-62
2022/01/23 11:23:17;;;;;;;0.00;0.00;;;6.90;99.90;;;;;;5102946;28;20171;-62
2022/01/23 11:25:56;;;;;;;0.00;0.00;;;6.90;99.90;;;;;;5095887;28;20051;-62
2022/01/23 11:28:36;;;;;;;0.00;0.00;;;7.00;99.90;;;;;;5095603;28;20043;-62
2022/01/23 11:31:04;;;;;;;0.00;0.00;;;7.40;99.90;;;;;;5097111;28;20108;-62
2022/01/23 11:33:30;;;;;;;0.00;0.00;;;7.60;99.90;;;;;;5095657;27;20046;-62
2022/01/23 11:35:55;;;;;;;0.00;0.00;;;7.00;99.90;;;;;;5081813;28;20127;-62
2022/01/23 11:38:23;;;;;;;0.00;0.00;;;7.00;99.90;;;;;;5082226;28;20715;-61
2022/01/23 11:54:48;;;;;;;0.00;0.00;;;6.80;99.90;;;;;;5101598;28;20091;-62
2022/01/23 11:57:35;;;;;;;0.00;0.00;;;7.10;99.90;;;;;;5102475;28;20421;-62
2022/01/23 12:00:06;;;;;;;0.00;0.00;;;8.30;99.90;;;;;;5101459;28;20052;-63
2022/01/23 12:02:51;;;;;;;0.00;0.00;;;6.80;99.90;;;;;;5102534;28;20543;-63
2022/01/23 12:05:20;;;;;;;0.00;0.00;;;6.70;99.90;;;;;;5101287;28;20508;-63
2022/01/23 12:08:15;;;;;;;0.00;0.00;;;6.70;99.90;;;;;;5102234;28;20047;-63
2022/01/23 12:11:15;;;;;;;0.00;0.00;;;6.60;99.90;;;;;;5101245;28;20055;-63
2022/01/23 12:16:29;;;;;;;0.00;0.00;;;6.70;99.90;;;;;;5100752;28;20048;-63
2022/01/23 12:19:18;;;;;;;0.00;0.00;;;6.60;99.90;;;;;;5101572;27;20485;-62
2022/01/23 12:21:45;;;;;;;0.00;0.00;;;6.60;99.90;;;;;;5100907;28;20051;-63
2022/01/23 12:24:14;;;;;;;0.05;0.05;;;6.60;99.90;;;;;;5101874;28;20036;-63
2022/01/23 12:26:44;;;;;;;0.00;0.00;;;7.00;99.90;;;;;;5102647;27;20102;-63
2022/01/23 12:29:24;;;;;;;0.00;0.00;;;6.60;99.90;;;;;;5096583;28;20047;-63
2022/01/23 12:32:10;;;;;;;0.00;0.00;;;6.60;99.90;;;;;;5099836;28;20456;-62
2022/01/23 12:34:53;;;;;;;0.00;0.00;;;6.50;99.90;;;;;;5101387;28;20044;-63
2022/01/23 12:37:18;;;;;;;0.00;0.00;;;6.50;99.90;;;;;;5101525;28;20067;-63
2022/01/23 12:39:46;;;;;;;0.00;0.00;;;7.80;99.90;;;;;;5100887;28;20071;-62
2022/01/23 12:42:12;;;;;;;0.00;0.00;;;6.50;99.90;;;;;;5101754;28;20050;-63
2022/01/23 12:44:40;;;;;;;0.00;0.00;;;6.40;99.90;;;;;;5100767;28;20470;-63
2022/01/23 12:47:18;;;;;;;0.00;0.00;;;6.40;99.90;;;;;;5101996;28;20469;-62
2022/01/23 12:49:50;;;;;;;0.00;0.00;;;6.40;99.90;;;;;;5100118;28;20043;-63
2022/01/23 12:52:21;;;;;;;0.00;0.00;;;6.30;99.90;;;;;;5101364;28;20040;-62
2022/01/23 12:54:47;;;;;;;0.00;0.00;;;6.30;99.90;;;;;;5101361;28;20047;-65
2022/01/23 12:57:17;;;;;;;0.00;0.00;;;6.30;99.90;;;;;;5100098;28;20059;-63
2022/01/23 12:59:54;;;;;;;0.00;0.00;;;6.30;99.90;;;;;;5099808;28;20043;-65
2022/01/23 13:02:22;;;;;;;0.00;0.00;;;6.30;99.90;;;;;;5093093;28;20079;-59
2022/01/23 13:04:51;;;;;;;0.00;0.00;;;6.40;99.90;;;;;;5090250;28;20044;-74
2022/01/23 13:31:48;;;;;;;0.00;0.00;;;6.30;99.90;;;;;;5080438;28;20051;-62
2022/01/23 13:34:35;;;;;;;0.00;0.00;;;6.30;99.90;;;;;;5078552;28;20457;-62
2022/01/23 13:37:18;;;;;;;0.00;0.00;;;6.40;99.90;;;;;;5079808;28;20114;-65
2022/01/23 13:39:57;;;;;;;0.00;0.00;;;6.30;99.90;;;;;;5079655;28;20036;-63
2022/01/23 13:59:20;;;;;;;0.00;0.00;;;6.70;99.90;;;;;;5078782;28;20123;-64
2022/01/23 14:01:56;;;;;;;0.00;0.00;;;6.40;99.90;;;;;;5079671;28;20567;-62
2022/01/23 14:04:24;;;;;;;0.00;0.00;;;6.40;99.90;;;;;;5078219;28;20116;-62
2022/01/23 14:06:51;;;;;;;0.00;0.00;;;6.40;99.90;;;;;;5078802;28;20051;-62
2022/01/23 14:09:19;;;;;;;0.10;0.10;;;6.40;99.90;;;;;;5084358;28;20135;-63
2022/01/23 14:11:46;;;;;;;0.00;0.00;;;6.30;99.90;;;;;;5086904;28;20493;-62
2022/01/23 14:14:12;;;;;;;0.00;0.00;;;6.40;99.90;;;;;;5083583;28;20052;-63
2022/01/23 14:16:38;;;;;;;0.00;0.00;;;6.30;99.90;;;;;;5086875;28;20583;-63
2022/01/23 14:19:28;;;;;;;0.00;0.00;;;6.40;99.90;;;;;;5086404;28;20614;-62
2022/01/23 14:21:56;;;;;;;0.00;0.00;;;6.40;99.90;;;;;;5084643;28;20055;-62
2022/01/23 14:24:31;;;;;;;0.00;0.00;;;6.30;99.90;;;;;;5085037;28;20505;-62
2022/01/23 14:27:07;;;;;;;0.00;0.00;;;6.40;99.90;;;;;;5085976;28;20086;-62
2022/01/23 14:29:51;;;;;;;0.00;0.00;;;6.40;99.90;;;;;;5084849;28;20050;-62
2022/01/23 14:32:29;;;;;;;0.00;0.00;;;6.40;99.90;;;;;;5086002;28;20502;-61
2022/01/23 14:35:14;;;;;;;0.00;0.00;;;6.40;99.90;;;;;;5084762;28;20047;-62
2022/01/23 14:37:41;;;;;;;0.00;0.00;;;6.30;99.90;;;;;;5086103;28;20035;-64
2022/01/23 14:40:12;;;;;;;1.75;0.52;;;6.70;99.90;;;;;;5086322;28;20043;-64
2022/01/23 14:42:38;;;;;;;0.00;0.00;;;6.40;99.90;;;;;;5093454;28;20130;-62
2022/01/23 14:45:06;;;;;;;0.00;0.00;;;6.40;99.90;;;;;;5085175;28;20416;-61
2022/01/23 14:47:39;;;;;;;0.00;0.00;;;6.30;99.90;;;;;;5086170;28;20043;-62
2022/01/23 14:50:12;;;;;;;0.00;0.00;;;6.30;99.90;;;;;;5085301;28;20036;-62
2022/01/23 14:52:40;;;;;;;0.00;0.00;;;6.30;99.90;;;;;;5086428;28;20480;-64
2022/01/23 14:55:08;;;;;;;0.00;0.00;;;6.30;99.90;;;;;;5085949;28;20052;-63
2022/01/23 14:57:34;;;;;;;0.00;0.00;;;6.30;99.90;;;;;;5085112;28;20059;-63
2022/01/23 15:00:04;;;;;;;0.00;0.00;;;6.30;99.90;;;;;;5084442;28;20274;-63
2022/01/23 15:02:29;;;;;;;0.00;0.00;;;6.30;99.90;;;;;;5086416;28;21381;-63
2022/01/23 15:04:57;;;;;;;0.00;0.00;;;6.20;99.90;;;;;;5085147;28;20043;-64
2022/01/23 15:07:22;;;;;;;0.00;0.00;;;6.20;99.90;;;;;;5082835;28;20051;-66
2022/01/23 15:09:50;;;;;;;0.00;0.00;;;6.20;99.90;;;;;;5085796;28;20043;-62
2022/01/23 15:12:17;;;;;;;0.00;0.00;;;6.20;99.90;;;;;;5085571;28;20122;-63
2022/01/23 15:14:43;;;;;;;0.00;0.00;;;6.20;99.90;;;;;;5084919;28;20078;-63
2022/01/23 15:17:09;;;;;;;0.45;0.45;;;6.50;99.90;;;;;;5085114;28;20048;-64
2022/01/23 15:19:35;;;;;;;0.00;0.00;;;6.20;99.90;;;;;;5088706;28;20516;-64
2022/01/23 15:22:01;;;;;;;0.00;0.00;;;6.20;99.90;;;;;;5083011;28;20042;-64
2022/01/23 15:24:28;;;;;;;0.00;0.00;;;6.20;99.90;;;;;;5086091;28;20086;-63
2022/01/23 15:26:53;;;;;;;0.00;0.00;;;6.20;99.90;;;;;;5083213;28;20044;-63
2022/01/23 15:29:19;;;;;;;0.00;0.00;;;6.10;99.90;;;;;;5083570;28;20059;-65
2022/01/23 15:31:47;;;;;;;0.00;0.00;;;6.10;99.90;;;;;;5084116;28;20512;-63
2022/01/23 15:34:15;;;;;;;0.00;0.00;;;6.20;99.90;;;;;;5084944;28;20062;-64
2022/01/23 15:36:41;;;;;;;0.32;0.28;;;6.10;99.90;;;;;;5091466;28;20040;-64
2022/01/23 15:39:07;;;;;;;0.00;0.00;;;6.10;99.90;;;;;;5086124;28;20028;-64
2022/01/23 15:41:33;;;;;;;0.00;0.00;;;6.10;99.90;;;;;;5085371;28;20525;-63
2022/01/23 15:43:58;;;;;;;0.00;0.00;;;6.10;99.90;;;;;;5084982;28;20044;-62
2022/01/23 15:46:24;;;;;;;0.00;0.00;;;6.10;99.90;;;;;;5086609;28;20047;-62
2022/01/23 15:48:50;;;;;;;0.05;0.05;;;6.10;99.90;;;;;;5088855;28;20047;-63
2022/01/23 15:51:16;;;;;;;0.00;0.00;;;6.10;99.90;;;;;;5088968;28;20040;-62
2022/01/23 15:53:41;;;;;;;0.63;0.57;;;6.10;99.90;;;;;;5088850;28;20040;-63
2022/01/23 15:56:07;;;;;;;0.10;0.10;;;6.10;99.90;;;;;;5088598;28;20119;-63
2022/01/23 15:58:33;;;;;;;0.00;0.00;;;6.10;99.90;;;;;;5088207;28;20059;-63
2022/01/23 16:00:58;;;;;;;0.00;0.00;;;6.10;99.90;;;;;;5088684;28;20047;-63
2022/01/23 16:03:26;;;;;;;0.00;0.00;;;6.10;99.90;;;;;;5089309;28;20125;-63
2022/01/23 16:05:53;;;;;;;0.00;0.00;;;6.10;99.90;;;;;;5087910;28;20047;-62
2022/01/23 16:08:19;;;;;;;0.00;0.00;;;6.10;99.90;;;;;;5089246;28;20406;-64
2022/01/23 16:10:45;;;;;;;0.05;0.05;;;6.10;99.90;;;;;;5088706;28;20078;-62
2022/01/23 16:13:11;;;;;;;0.00;0.00;;;6.00;99.90;;;;;;5088596;27;20364;-63
2022/01/23 16:15:37;;;;;;;0.00;0.00;;;6.00;99.90;;;;;;5087820;28;20131;-63
2022/01/23 16:18:03;;;;;;;0.00;0.00;;;6.00;99.90;;;;;;5087949;28;20130;-64
2022/01/23 16:20:30;;;;;;;0.00;0.00;;;6.00;99.90;;;;;;5088641;28;20036;-64
2022/01/23 16:22:55;;;;;;;0.00;0.00;;;6.00;99.90;;;;;;5087691;28;20047;-62
2022/01/23 16:25:22;;;;;;;0.00;0.00;;;6.00;99.90;;;;;;5088036;28;20125;-63
2022/01/23 16:27:49;;;;;;;0.00;0.00;;;6.00;99.90;;;;;;5088003;28;20446;-63
2022/01/23 16:30:16;;;;;;;0.00;0.00;;;6.00;99.90;;;;;;5086899;28;20048;-63
2022/01/23 16:32:42;;;;;;;0.00;0.00;;;6.00;99.90;;;;;;5087853;28;20569;-63
2022/01/23 16:35:09;;;;;;;0.00;0.00;;;6.00;99.90;;;;;;5087626;28;20040;-63
2022/01/23 16:37:34;;;;;;;0.00;0.00;;;6.00;99.90;;;;;;5086220;28;20127;-63
2022/01/23 16:40:00;;;;;;;0.00;0.00;;;5.90;99.90;;;;;;5087355;28;20791;-63
2022/01/23 16:42:26;;;;;;;0.00;0.00;;;6.00;99.90;;;;;;5087180;28;20039;-62
2022/01/23 16:44:52;;;;;;;0.00;0.00;;;6.00;99.90;;;;;;5087364;27;20096;-63
2022/01/23 16:47:17;;;;;;;0.00;0.00;;;6.00;99.90;;;;;;5087176;28;20104;-64
2022/01/23 16:49:43;;;;;;;0.70;0.35;;;5.90;99.90;;;;;;5085666;28;20741;-65